セントジョンズ の空港の天気 - METARとTAF

セント・ジョンズ国際空港 ( CYYT / YYT ) - カナダ ニューファンドランド・ラブラドール州セントジョンズ
飛行場実況気象(Metar)
観測時間08/25 16:30 NDT (08/25 19:00 UTC)
風向・風速西 5m/s
視程10km以上
天気現象
少しの雲 雲底高度 1950m
少しの雲 雲底高度 7320m
気温18℃
湿度34%
気圧1027.6hPa
METARCYYT 251900Z 28010KT 15SM FEW064 FEW240 18/02 A3033 RMK CU1CI1 SLP276 DENSITY ALT 500FT
過去の天気等 Google飛行場航空写真 Wunderground天気予報

過去48時間のMETAR

飛行場予報(TAF)
発表時間: 8/25 15:12 NDT (8/25 17:42 UTC)
予報対象時間: 25日15時 NDT ~ 26日15時 NDT
風向・風速西北西 3m/s
視程10km以上
少しの雲 雲底高度 1220m
25日15時 NDT ~ 25日17時 NDT に徐々に
風向・風速不定 2m/s
25日17時 NDT ~ 25日19時 NDT に徐々に
風向・風速南 5m/s
25日21時 NDT から
風向・風速南西 5m/s
視程10km以上
なし
25日22時 NDT ~ 26日24時 NDT に徐々に
風向・風速西 6m/s
26日13時 NDT ~ 26日15時 NDT に徐々に
風向・風速東 4m/s
TAF CYYT 251742Z 2518/2618 30006KT P6SM FEW040
BECMG 2518/2520 VRB03KT
BECMG 2520/2522 19009KT
FM260000 23010KT P6SM SKC
BECMG 2601/2603 26012KT
BECMG 2616/2618 08008KT RMK NXT FCST BY 260000Z